createdAt,value
2022-10-17T04:02:13.015Z,100.00
2022-10-17T04:05:16.157Z,100.00
2022-10-17T04:08:18.671Z,100.00
2022-10-17T04:11:25.616Z,100.00
2022-10-17T04:14:28.590Z,100.00
2022-10-17T04:17:37.220Z,100.00
2022-10-17T04:20:41.062Z,100.00
2022-10-17T04:23:43.955Z,100.00
2022-10-17T04:26:51.231Z,100.00
2022-10-17T04:29:54.113Z,100.00
2022-10-17T04:32:56.660Z,100.00
2022-10-17T04:36:00.533Z,100.00
2022-10-17T04:39:05.099Z,100.00
2022-10-17T04:42:08.395Z,100.00
2022-10-17T04:45:11.104Z,100.00
2022-10-17T04:48:14.067Z,100.00
2022-10-17T04:51:21.781Z,100.00
2022-10-17T04:54:31.922Z,100.00
2022-10-17T04:57:35.724Z,100.00
2022-10-17T05:00:39.169Z,100.00
2022-10-17T05:03:42.365Z,100.00
2022-10-17T05:06:45.114Z,100.00
2022-10-17T05:09:48.895Z,100.00
2022-10-17T05:12:52.125Z,100.00
2022-10-17T05:15:58.848Z,100.00
2022-10-17T05:19:02.461Z,100.00
2022-10-17T05:22:06.659Z,100.00
2022-10-17T05:25:09.830Z,100.00
2022-10-17T05:28:12.444Z,100.00
2022-10-17T05:31:15.788Z,100.00
2022-10-17T05:34:18.421Z,100.00
2022-10-17T05:37:21.238Z,100.00
2022-10-17T05:40:24.627Z,100.00
2022-10-17T05:43:28.403Z,100.00
2022-10-17T05:46:31.116Z,100.00
2022-10-17T05:49:44.982Z,100.00
2022-10-17T05:52:53.733Z,100.00
2022-10-17T05:55:58.848Z,100.00
2022-10-17T05:59:01.650Z,100.00
2022-10-17T06:02:04.736Z,100.00
2022-10-17T06:05:08.039Z,100.00
2022-10-17T06:08:10.646Z,100.00
2022-10-17T06:11:14.045Z,100.00
2022-10-17T06:14:16.624Z,100.00
2022-10-17T06:17:19.525Z,100.00
2022-10-17T06:20:22.038Z,100.00
2022-10-17T06:23:25.594Z,100.00
2022-10-17T06:26:28.419Z,100.00
2022-10-17T06:29:34.956Z,100.00
2022-10-17T06:32:37.505Z,100.00
2022-10-17T06:35:41.202Z,100.00
2022-10-17T06:38:43.684Z,100.00
2022-10-17T06:41:48.210Z,100.00
2022-10-17T06:44:53.055Z,100.00
2022-10-17T06:47:56.037Z,100.00
2022-10-17T06:51:01.082Z,100.00
2022-10-17T06:54:04.692Z,100.00
2022-10-17T06:57:07.373Z,100.00
2022-10-17T07:00:11.604Z,100.00
2022-10-17T07:03:14.479Z,100.00
2022-10-17T07:06:18.085Z,100.00
2022-10-17T07:09:21.186Z,100.00
2022-10-17T07:12:24.403Z,100.00
2022-10-17T07:15:27.889Z,97.63
2022-10-17T07:18:31.663Z,97.24
2022-10-17T07:21:36.703Z,97.13
2022-10-17T07:24:42.342Z,90.57
2022-10-17T07:27:49.196Z,89.13
2022-10-17T07:30:54.424Z,89.78
2022-10-17T07:33:59.611Z,88.61
2022-10-17T07:37:03.984Z,88.41
2022-10-17T07:40:08.188Z,86.82
2022-10-17T07:43:12.474Z,87.04
2022-10-17T07:46:15.458Z,85.51
2022-10-17T07:49:19.091Z,80.75
2022-10-17T07:52:21.797Z,79.36
2022-10-17T07:55:24.674Z,78.55
2022-10-17T07:58:28.748Z,79.70
2022-10-17T08:01:31.460Z,79.48
2022-10-17T08:04:34.855Z,77.48
2022-10-17T08:07:37.392Z,74.11
2022-10-17T08:10:40.222Z,74.56
2022-10-17T08:13:43.350Z,74.74
2022-10-17T08:16:46.169Z,72.84
2022-10-17T08:19:48.624Z,73.35
2022-10-17T08:23:03.828Z,73.77
2022-10-17T08:26:10.569Z,69.84
2022-10-17T08:29:16.414Z,69.55
2022-10-17T08:32:26.376Z,68.79
2022-10-17T08:35:29.399Z,67.94
2022-10-17T08:38:35.288Z,67.83
2022-10-17T08:41:57.456Z,67.80
2022-10-17T08:45:42.266Z,66.27
2022-10-17T08:48:47.902Z,65.52
2022-10-17T08:51:58.035Z,66.21
2022-10-17T08:55:01.108Z,64.76
2022-10-17T08:58:05.557Z,62.21
2022-10-17T09:01:25.515Z,62.24
2022-10-17T09:05:06.075Z,61.24
2022-10-17T09:08:17.817Z,62.22
2022-10-17T09:11:47.062Z,61.29
2022-10-17T09:15:03.061Z,61.02
2022-10-17T09:18:21.130Z,60.46
2022-10-17T09:21:49.489Z,60.30
2022-10-17T09:25:06.887Z,58.62
2022-10-17T09:28:09.626Z,60.38
2022-10-17T09:31:20.041Z,60.22
2022-10-17T09:34:26.752Z,57.80
2022-10-17T09:37:32.935Z,57.37
2022-10-17T09:40:36.679Z,55.32
2022-10-17T09:43:40.171Z,55.46
2022-10-17T09:47:03.466Z,54.62
2022-10-17T09:50:34.067Z,54.57
2022-10-17T09:53:40.677Z,52.87
2022-10-17T09:57:16.987Z,52.21
2022-10-17T10:00:38.033Z,51.83
2022-10-17T10:03:40.900Z,51.70
2022-10-17T10:07:05.821Z,52.74
2022-10-17T10:10:27.649Z,48.84
2022-10-17T10:13:33.263Z,51.36
2022-10-17T10:16:43.359Z,50.23
2022-10-17T10:19:50.847Z,48.58
2022-10-17T10:23:13.649Z,48.97
2022-10-17T10:26:25.872Z,47.62
2022-10-17T10:29:34.148Z,46.95
2022-10-17T10:32:37.689Z,46.76
2022-10-17T10:35:40.623Z,46.75
2022-10-17T10:38:53.612Z,45.34
2022-10-17T10:41:56.913Z,45.34
2022-10-17T10:45:29.120Z,45.72
2022-10-17T10:48:37.037Z,46.01
2022-10-17T10:51:48.583Z,44.62
2022-10-17T10:55:03.872Z,45.74
2022-10-17T10:58:27.505Z,45.57
2022-10-17T11:01:50.442Z,45.01
2022-10-17T11:05:00.521Z,43.72
2022-10-17T11:08:24.474Z,45.20
2022-10-17T11:11:34.518Z,42.44
2022-10-17T11:15:01.303Z,40.74
2022-10-17T11:18:07.041Z,39.45
2022-10-17T11:21:20.867Z,39.10
2022-10-17T11:24:59.684Z,38.79
2022-10-17T11:28:05.477Z,37.76
2022-10-17T11:31:12.737Z,37.31
2022-10-17T11:34:21.486Z,34.69
2022-10-17T11:37:29.409Z,34.42
2022-10-17T11:40:36.137Z,33.55
2022-10-17T11:43:53.310Z,31.51
2022-10-17T11:47:05.889Z,30.13
2022-10-17T11:54:19.020Z,27.04
2022-10-17T11:57:34.896Z,25.45
2022-10-17T12:00:54.699Z,24.51
2022-10-17T12:04:15.681Z,23.64
2022-10-17T12:11:01.828Z,21.26
2022-10-17T12:14:39.093Z,22.02
2022-10-17T12:17:46.396Z,22.75
2022-10-17T12:21:00.180Z,22.27
2022-10-17T12:24:02.967Z,20.94
2022-10-17T12:27:38.500Z,20.58
2022-10-17T12:30:55.199Z,19.00
2022-10-17T12:34:00.479Z,18.77
2022-10-17T12:37:03.281Z,20.90
2022-10-17T12:40:34.778Z,21.07
2022-10-17T12:43:48.143Z,23.47
2022-10-17T12:46:51.942Z,26.96
2022-10-17T12:49:56.725Z,29.17
2022-10-17T12:53:06.438Z,30.70
2022-10-17T12:56:09.945Z,32.25
2022-10-17T12:59:20.521Z,33.92
2022-10-17T13:02:28.262Z,35.39
2022-10-17T13:05:34.889Z,35.97
2022-10-17T13:08:43.290Z,37.24
2022-10-17T13:11:46.007Z,37.34
2022-10-17T13:14:51.492Z,37.10
2022-10-17T13:17:59.087Z,38.31
2022-10-17T13:21:06.558Z,38.53
2022-10-17T13:24:41.903Z,38.33
2022-10-17T13:27:45.000Z,39.45
2022-10-17T13:30:49.563Z,39.05
2022-10-17T13:33:57.142Z,39.29
2022-10-17T13:37:10.680Z,38.71
2022-10-17T13:40:40.275Z,37.69
2022-10-17T13:43:42.039Z,39.29
2022-10-17T13:46:45.228Z,39.34
2022-10-17T13:49:49.546Z,38.98
2022-10-17T13:53:16.250Z,39.60
2022-10-17T13:56:29.932Z,38.04
2022-10-17T13:59:41.572Z,39.12
2022-10-17T14:02:44.154Z,38.53
2022-10-17T14:06:26.968Z,38.58
2022-10-17T14:09:30.882Z,40.18
2022-10-17T14:12:34.514Z,40.15
2022-10-17T14:15:37.530Z,40.02
2022-10-17T14:18:40.716Z,41.39
2022-10-17T14:21:48.968Z,40.13
2022-10-17T14:24:53.435Z,42.19
2022-10-17T14:28:09.178Z,41.73
2022-10-17T14:31:21.129Z,41.96
2022-10-17T14:34:29.852Z,41.07
2022-10-17T14:37:48.778Z,41.25
2022-10-17T14:41:00.944Z,41.27
2022-10-17T14:44:24.669Z,41.84
2022-10-17T14:47:42.761Z,41.68
2022-10-17T14:51:14.731Z,41.41
2022-10-17T14:54:24.012Z,42.03
2022-10-17T14:57:26.838Z,41.76
2022-10-17T15:00:29.594Z,42.32
2022-10-17T15:03:32.455Z,43.27
2022-10-17T15:06:35.484Z,44.06
2022-10-17T15:09:38.283Z,45.20
2022-10-17T15:12:51.012Z,44.08
2022-10-17T15:16:01.856Z,43.93
2022-10-17T15:19:04.455Z,44.82
2022-10-17T15:22:07.457Z,45.21
2022-10-17T15:25:10.022Z,46.51
2022-10-17T15:28:13.636Z,45.64
2022-10-17T15:31:19.007Z,46.13
2022-10-17T15:34:23.438Z,47.15
2022-10-17T15:37:26.256Z,47.39
2022-10-17T15:40:29.814Z,48.21
2022-10-17T15:43:32.357Z,47.90
2022-10-17T15:46:36.099Z,49.01
2022-10-17T15:49:39.197Z,49.75
2022-10-17T15:52:42.139Z,51.02
2022-10-17T15:55:44.763Z,52.23
2022-10-17T15:58:47.890Z,53.61
